createdAt,value
2022-07-25T00:01:22.633Z,24.77
2022-07-25T00:03:51.958Z,24.30
2022-07-25T00:06:21.527Z,25.90
2022-07-25T00:08:52.494Z,26.40
2022-07-25T00:11:20.797Z,26.73
2022-07-25T00:13:49.086Z,26.30
2022-07-25T00:16:19.644Z,26.00
2022-07-25T00:18:48.080Z,25.30
2022-07-25T00:21:16.340Z,25.27
2022-07-25T00:23:46.084Z,26.10
2022-07-25T00:26:14.655Z,24.87
2022-07-25T00:28:42.929Z,26.10
2022-07-25T00:31:13.527Z,27.00
2022-07-25T00:33:44.336Z,28.00
2022-07-25T00:36:12.720Z,26.60
2022-07-25T00:38:40.901Z,26.87
2022-07-25T00:41:10.839Z,26.70
2022-07-25T00:43:39.148Z,28.67
2022-07-25T00:46:07.428Z,26.33
2022-07-25T00:48:36.976Z,27.43
2022-07-25T00:51:05.616Z,28.03
2022-07-25T00:53:34.517Z,29.40
2022-07-25T00:56:02.818Z,29.80
2022-07-25T00:58:32.812Z,30.17
2022-07-25T01:01:01.710Z,30.30
2022-07-25T01:03:32.389Z,32.90
2022-07-25T01:06:00.630Z,37.50
2022-07-25T01:08:29.529Z,39.80
2022-07-25T01:11:00.181Z,40.67
2022-07-25T01:13:28.697Z,42.40
2022-07-25T01:16:00.715Z,45.20
2022-07-25T01:18:29.085Z,44.10
2022-07-25T01:20:58.935Z,44.37
2022-07-25T01:23:29.548Z,44.67
2022-07-25T01:25:57.636Z,45.90
2022-07-25T01:28:25.960Z,43.17
2022-07-25T01:30:54.387Z,44.10
2022-07-25T01:33:24.253Z,42.47
2022-07-25T01:35:52.918Z,40.90
2022-07-25T01:38:22.814Z,39.30
2022-07-25T01:40:51.243Z,43.33
2022-07-25T01:43:19.700Z,43.33
2022-07-25T01:45:47.883Z,44.00
2022-07-25T01:48:18.138Z,47.50
2022-07-25T01:50:48.367Z,46.17
2022-07-25T01:53:17.269Z,44.67
2022-07-25T01:55:48.160Z,45.40
2022-07-25T01:58:16.476Z,45.13
2022-07-25T02:00:51.229Z,45.67
2022-07-25T02:03:32.527Z,44.60
2022-07-25T02:06:03.085Z,44.73
2022-07-25T02:08:31.853Z,45.27
2022-07-25T02:11:02.589Z,45.57
2022-07-25T02:13:30.745Z,46.03
2022-07-25T02:16:01.540Z,44.90
2022-07-25T02:18:30.017Z,46.53
2022-07-25T02:20:58.465Z,50.10
2022-07-25T02:23:26.840Z,48.77
2022-07-25T02:25:55.143Z,48.27
2022-07-25T02:28:24.704Z,49.70
2022-07-25T02:30:52.847Z,52.63
2022-07-25T02:33:21.060Z,50.70
2022-07-25T02:35:50.372Z,52.10
2022-07-25T02:38:20.911Z,50.90
2022-07-25T02:40:50.516Z,48.27
2022-07-25T02:43:22.161Z,50.57
2022-07-25T02:45:52.095Z,53.40
2022-07-25T02:48:20.401Z,51.97
2022-07-25T02:50:48.549Z,53.30
2022-07-25T02:53:24.651Z,52.60
2022-07-25T02:56:05.370Z,53.63
2022-07-25T02:58:34.123Z,56.77
2022-07-25T03:01:03.749Z,54.80
2022-07-25T03:03:32.245Z,57.00
2022-07-25T03:06:00.513Z,59.20
2022-07-25T03:08:28.685Z,57.70
2022-07-25T03:10:57.033Z,60.90
2022-07-25T03:13:25.797Z,60.27
2022-07-25T03:15:53.930Z,60.13
2022-07-25T03:18:23.447Z,62.37
2022-07-25T03:20:51.624Z,61.23
2022-07-25T03:23:19.982Z,62.50
2022-07-25T03:25:48.389Z,62.77
2022-07-25T03:28:16.693Z,65.23
2022-07-25T03:30:45.002Z,67.37
2022-07-25T03:33:13.244Z,65.70
2022-07-25T03:35:43.085Z,62.10
2022-07-25T03:38:11.266Z,66.53
2022-07-25T03:40:39.673Z,66.47
2022-07-25T03:43:07.953Z,68.50
2022-07-25T03:45:36.346Z,64.30
2022-07-25T03:48:05.703Z,67.87
2022-07-25T03:50:33.833Z,66.17
2022-07-25T03:53:05.722Z,63.90
2022-07-25T03:55:34.472Z,66.43
2022-07-25T03:58:02.757Z,70.43
2022-07-25T04:00:31.138Z,69.33
2022-07-25T04:02:59.438Z,71.97
2022-07-25T04:05:30.533Z,67.83
2022-07-25T04:11:12.386Z,70.23
2022-07-25T04:13:40.556Z,67.97
2022-07-25T04:16:12.999Z,72.00
2022-07-25T04:18:46.641Z,69.10
2022-07-25T04:21:17.802Z,76.27
2022-07-25T04:23:48.183Z,72.60
2022-07-25T04:26:20.666Z,69.93
2022-07-25T04:28:48.836Z,73.00
2022-07-25T04:31:17.068Z,70.00
2022-07-25T04:33:46.131Z,70.87
2022-07-25T04:36:14.208Z,67.53
2022-07-25T04:38:44.826Z,69.70
2022-07-25T04:41:13.213Z,71.10
2022-07-25T04:43:48.277Z,74.63
2022-07-25T04:46:20.397Z,74.80
2022-07-25T04:48:50.622Z,70.43
2022-07-25T04:51:19.756Z,75.67
2022-07-25T04:53:48.194Z,74.00
2022-07-25T04:56:16.841Z,75.70
2022-07-25T04:58:46.420Z,75.63
2022-07-25T05:01:15.033Z,73.10
2022-07-25T05:03:49.817Z,72.80
2022-07-25T05:06:19.673Z,71.87
2022-07-25T05:08:48.285Z,72.17
2022-07-25T05:11:18.534Z,73.20
2022-07-25T05:13:48.128Z,68.67
2022-07-25T05:16:16.506Z,70.40
2022-07-25T05:18:44.786Z,68.40
2022-07-25T05:21:14.068Z,71.23
2022-07-25T05:23:42.445Z,74.00
2022-07-25T05:26:10.662Z,70.10
2022-07-25T05:28:38.919Z,68.67
2022-07-25T05:31:08.650Z,67.50
2022-07-25T05:33:36.916Z,68.93
2022-07-25T05:36:08.875Z,63.50
2022-07-25T05:38:39.420Z,68.83
2022-07-25T05:41:07.988Z,63.30
2022-07-25T05:43:36.462Z,63.33
2022-07-25T05:46:08.934Z,60.10
2022-07-25T05:48:37.360Z,57.67
2022-07-25T05:51:08.092Z,54.80
2022-07-25T05:53:37.759Z,48.40
2022-07-25T05:56:06.837Z,46.07
2022-07-25T05:58:36.884Z,49.80
2022-07-25T06:01:05.238Z,44.63
2022-07-25T06:03:35.369Z,39.40
2022-07-25T06:06:03.723Z,37.33
2022-07-25T06:08:35.322Z,37.20
2022-07-25T06:11:06.028Z,36.53
2022-07-25T06:13:37.095Z,33.80
2022-07-25T06:16:06.116Z,33.13
2022-07-25T06:19:01.906Z,36.20
2022-07-25T06:21:30.394Z,32.37
2022-07-25T06:23:58.584Z,31.50
2022-07-25T06:26:26.684Z,31.53
2022-07-25T06:28:54.969Z,31.57
2022-07-25T06:31:23.159Z,30.10
2022-07-25T06:33:53.952Z,32.03
2022-07-25T06:36:23.564Z,32.23
2022-07-25T06:39:00.686Z,32.40
2022-07-25T06:41:28.842Z,30.70
2022-07-25T06:43:57.130Z,31.67
2022-07-25T06:46:26.650Z,31.43
2022-07-25T06:48:54.944Z,30.57
2022-07-25T06:51:25.252Z,29.50
2022-07-25T06:53:53.727Z,31.10
2022-07-25T06:56:24.520Z,29.23
2022-07-25T06:58:53.368Z,31.60
2022-07-25T08:45:00.277Z,22.00
2022-07-25T08:47:41.086Z,20.97
2022-07-25T08:50:14.649Z,22.27
2022-07-25T08:52:45.463Z,20.57
2022-07-25T08:55:16.939Z,21.13
2022-07-25T08:57:46.165Z,20.30
2022-07-25T09:00:18.203Z,21.27
2022-07-25T09:02:53.206Z,21.33
2022-07-25T09:05:23.061Z,20.60
2022-07-25T09:07:52.206Z,19.30
2022-07-25T09:10:22.764Z,19.80
2022-07-25T09:12:56.058Z,20.13
2022-07-25T09:15:26.734Z,21.50
2022-07-25T09:17:58.794Z,20.60
2022-07-25T09:20:39.768Z,21.30
2022-07-25T09:23:08.307Z,20.30
2022-07-25T09:25:36.823Z,19.30
2022-07-25T09:28:16.243Z,19.73
2022-07-25T09:30:56.242Z,19.80
2022-07-25T09:33:27.966Z,19.97
2022-07-25T09:35:56.989Z,18.67
2022-07-25T09:38:26.482Z,19.53
2022-07-25T09:40:56.428Z,19.67
2022-07-25T09:43:25.172Z,21.10
2022-07-25T09:46:02.304Z,20.73
2022-07-25T09:48:33.443Z,20.20
2022-07-25T09:51:02.911Z,21.00
2022-07-25T09:53:31.382Z,22.03
2022-07-25T09:56:00.082Z,20.83
2022-07-25T09:58:31.852Z,21.53
2022-07-25T10:01:05.247Z,20.07
2022-07-25T10:03:51.651Z,20.50
2022-07-25T10:06:25.846Z,19.53
2022-07-25T10:08:55.240Z,20.90
2022-07-25T10:11:25.514Z,21.40
2022-07-25T10:13:54.955Z,20.73
2022-07-25T10:16:24.613Z,20.70
2022-07-25T10:18:55.827Z,21.20
2022-07-25T10:21:29.176Z,21.00
2022-07-25T10:24:05.902Z,20.03
2022-07-25T10:26:39.969Z,20.60
2022-07-25T10:29:10.911Z,21.83
2022-07-25T10:31:49.355Z,20.97
2022-07-25T10:34:30.290Z,21.20
2022-07-25T10:36:59.680Z,20.80
2022-07-25T10:39:38.185Z,21.30
2022-07-25T10:42:07.111Z,21.93
2022-07-25T10:44:43.290Z,20.20
2022-07-25T10:47:13.083Z,21.13
2022-07-25T10:50:13.581Z,21.43
2022-07-25T10:52:33.329Z,21.03
2022-07-25T10:55:02.828Z,20.40
2022-07-25T10:57:32.220Z,20.33
2022-07-25T11:00:07.061Z,20.80
2022-07-25T11:02:35.401Z,21.47
2022-07-25T11:05:06.389Z,21.27
2022-07-25T11:07:36.958Z,21.03
2022-07-25T11:10:07.354Z,20.87
2022-07-25T11:12:36.256Z,19.90
2022-07-25T11:15:07.992Z,19.97
2022-07-25T11:18:06.760Z,20.63
2022-07-25T11:21:16.856Z,21.60
2022-07-25T11:24:17.852Z,20.60
2022-07-25T11:26:56.695Z,20.50
2022-07-25T11:30:07.531Z,21.03
2022-07-25T11:32:57.327Z,21.03
2022-07-25T11:35:34.907Z,20.47
2022-07-25T11:38:24.542Z,20.17
2022-07-25T11:41:09.433Z,20.70
2022-07-25T11:44:12.268Z,20.80
2022-07-25T11:47:08.034Z,20.53
2022-07-25T11:49:54.690Z,21.23
2022-07-25T11:52:36.994Z,21.00
2022-07-25T11:55:18.943Z,21.30
2022-07-25T11:58:31.183Z,20.90
2022-07-25T12:01:31.490Z,20.20
2022-07-25T12:04:39.568Z,20.30
2022-07-25T12:07:22.718Z,20.43
2022-07-25T12:10:09.419Z,21.60
2022-07-25T12:13:18.593Z,22.50
2022-07-25T12:19:55.030Z,21.07
2022-07-25T12:23:03.002Z,21.40
2022-07-25T12:26:25.941Z,20.67
2022-07-25T12:29:17.866Z,19.97
2022-07-25T12:32:07.553Z,20.05
2022-07-25T12:35:10.370Z,21.08
2022-07-25T12:37:47.611Z,20.20
2022-07-25T12:40:38.025Z,20.38
2022-07-25T12:54:22.854Z,20.00
2022-07-25T12:56:54.611Z,20.55
2022-07-25T12:59:40.601Z,21.27
2022-07-25T13:02:14.949Z,20.10
2022-07-25T13:05:05.209Z,19.80
2022-07-25T13:07:35.821Z,20.88
2022-07-25T13:10:05.297Z,21.08
2022-07-25T13:12:36.269Z,20.42
2022-07-25T13:15:05.016Z,20.92
2022-07-25T13:17:42.094Z,19.90
2022-07-25T13:20:19.740Z,20.02
2022-07-25T13:23:10.890Z,19.70
2022-07-25T13:25:54.541Z,20.42
2022-07-25T13:28:46.194Z,20.00
2022-07-25T13:31:33.437Z,33.22
2022-07-25T13:34:17.341Z,20.80
2022-07-25T13:37:02.560Z,21.38
2022-07-25T13:39:53.722Z,21.45
2022-07-25T13:42:32.616Z,21.25
2022-07-25T13:45:30.491Z,20.15
2022-07-25T13:48:29.372Z,21.17
2022-07-25T13:51:08.038Z,21.08
2022-07-25T13:53:59.540Z,20.95
2022-07-25T13:56:32.661Z,20.10
2022-07-25T13:59:05.370Z,20.95
2022-07-25T14:01:34.069Z,21.38
2022-07-25T14:04:02.788Z,21.23
2022-07-25T14:06:32.719Z,21.17
2022-07-25T14:09:01.271Z,20.67
2022-07-25T14:11:43.004Z,20.33
2022-07-25T15:38:09.214Z,18.47
2022-07-25T15:40:37.850Z,17.43
2022-07-25T15:43:13.707Z,19.20
2022-07-25T15:45:56.727Z,20.57
2022-07-25T15:48:29.778Z,20.83
2022-07-25T15:51:05.558Z,20.37
2022-07-25T15:53:39.964Z,19.90
2022-07-25T15:56:10.749Z,18.80
2022-07-25T15:58:39.740Z,19.40
2022-07-25T16:01:08.168Z,20.47
2022-07-25T16:03:37.247Z,19.40
2022-07-25T16:06:18.669Z,19.63
2022-07-25T16:08:50.109Z,20.23
2022-07-25T16:11:25.198Z,18.87
2022-07-25T16:14:05.934Z,18.80
2022-07-25T16:16:41.413Z,19.07
2022-07-25T16:19:16.345Z,18.37
2022-07-25T16:22:03.189Z,17.43
2022-07-25T16:24:46.005Z,17.60
2022-07-25T16:27:20.976Z,18.40
2022-07-25T16:30:35.022Z,19.10
2022-07-25T16:33:05.054Z,18.90
2022-07-25T16:35:47.616Z,17.80
2022-07-25T16:38:17.464Z,18.43
2022-07-25T16:40:48.462Z,18.20
2022-07-25T16:43:20.102Z,18.43
2022-07-25T16:45:48.702Z,16.70
2022-07-25T16:48:19.330Z,17.93
2022-07-25T16:50:50.872Z,17.90
2022-07-25T16:53:25.479Z,17.03
2022-07-25T16:55:56.080Z,16.97
2022-07-25T16:58:56.799Z,17.93
2022-07-25T17:01:38.100Z,18.40
2022-07-25T17:04:09.200Z,18.03
2022-07-25T17:06:38.024Z,16.70
2022-07-25T17:09:12.718Z,18.70
2022-07-25T17:11:49.605Z,18.13
2022-07-25T17:14:23.045Z,18.70
2022-07-25T17:16:57.919Z,17.90
2022-07-25T17:19:59.773Z,18.00
2022-07-25T17:22:32.173Z,19.30
2022-07-25T17:25:05.677Z,19.17
2022-07-25T17:27:37.543Z,18.30
2022-07-25T17:30:07.550Z,18.90
2022-07-25T17:32:35.966Z,30.70
2022-07-25T17:35:05.361Z,18.03
2022-07-25T17:37:34.215Z,19.60
2022-07-25T17:40:03.103Z,19.80
2022-07-25T17:42:32.362Z,18.50
2022-07-25T17:45:05.998Z,18.87
2022-07-25T17:47:34.711Z,18.53
2022-07-25T17:50:03.693Z,19.00
2022-07-25T17:52:31.843Z,18.30
2022-07-25T17:55:00.486Z,18.70
2022-07-25T17:57:29.756Z,18.80
2022-07-25T17:59:58.031Z,19.23
2022-07-25T18:02:28.686Z,19.17
2022-07-25T18:04:57.393Z,18.43
2022-07-25T18:07:27.412Z,19.10
2022-07-25T18:09:56.010Z,18.40
2022-07-25T18:12:29.491Z,19.70
2022-07-25T18:14:58.359Z,19.70
2022-07-25T18:17:28.613Z,19.80
2022-07-25T18:19:57.390Z,20.47
2022-07-25T18:22:26.531Z,21.03
2022-07-25T18:24:57.481Z,21.50
2022-07-25T18:27:27.969Z,20.93
2022-07-25T18:29:59.743Z,20.90
2022-07-25T18:32:29.761Z,19.13
2022-07-25T18:34:58.358Z,19.40
2022-07-25T18:40:25.938Z,20.00
2022-07-25T18:42:55.021Z,20.70
2022-07-25T18:45:30.190Z,20.50
2022-07-25T18:48:01.377Z,20.13
2022-07-25T18:50:29.827Z,21.20
2022-07-25T18:52:58.141Z,52.00
2022-07-25T18:55:26.499Z,25.27
2022-07-25T18:57:55.302Z,226.73
2022-07-25T19:00:26.520Z,175.27
2022-07-25T19:03:05.308Z,182.20
2022-07-25T19:05:33.779Z,236.77
2022-07-25T19:08:03.371Z,246.80
2022-07-25T19:10:31.848Z,257.13
2022-07-25T19:13:00.966Z,239.10
2022-07-25T19:15:29.477Z,228.03
2022-07-25T19:17:57.967Z,260.50
2022-07-25T19:20:27.849Z,291.20
2022-07-25T19:22:56.588Z,299.90
2022-07-25T19:25:25.530Z,298.30
2022-07-25T19:27:54.098Z,293.80
2022-07-25T19:30:22.574Z,296.97
2022-07-25T19:32:50.958Z,293.63
2022-07-25T19:35:25.835Z,294.70
2022-07-25T19:37:56.250Z,297.50
2022-07-25T19:40:25.053Z,312.03
2022-07-25T19:42:54.153Z,321.20
2022-07-25T19:45:24.367Z,308.07
2022-07-25T19:47:55.284Z,306.50
2022-07-25T19:50:26.415Z,317.97
2022-07-25T19:53:02.102Z,313.27
2022-07-25T19:55:43.667Z,304.27
2022-07-25T19:58:14.802Z,279.03
2022-07-25T20:00:43.533Z,215.93
2022-07-25T20:03:46.243Z,138.20
2022-07-25T20:06:23.781Z,93.87
2022-07-25T20:08:55.257Z,71.30
2022-07-25T20:11:23.835Z,49.27
2022-07-25T20:13:52.568Z,43.70
2022-07-25T20:16:21.556Z,36.10
2022-07-25T20:18:50.393Z,33.53
2022-07-25T20:21:19.224Z,33.07
2022-07-25T20:23:48.481Z,28.77
2022-07-25T20:26:19.274Z,29.97
2022-07-25T20:28:48.158Z,28.60
2022-07-25T20:31:17.746Z,27.20
2022-07-25T20:33:48.642Z,31.57
2022-07-25T20:36:20.823Z,29.30
2022-07-25T20:38:49.335Z,30.50
2022-07-25T20:41:20.044Z,31.40
2022-07-25T20:43:48.278Z,28.97
2022-07-25T20:46:16.601Z,31.77
2022-07-25T20:48:44.965Z,33.57
2022-07-25T20:51:20.963Z,33.67
2022-07-25T20:54:42.407Z,36.63
2022-07-25T20:57:38.010Z,37.27
2022-07-25T21:00:07.906Z,39.10
2022-07-25T21:02:37.226Z,37.73
2022-07-25T21:05:07.388Z,36.80
2022-07-25T21:07:56.662Z,38.00
2022-07-25T21:10:26.995Z,36.30
2022-07-25T21:13:07.165Z,34.40
2022-07-25T21:15:37.136Z,31.37
2022-07-25T21:18:06.155Z,33.53
2022-07-25T21:20:37.821Z,33.83
2022-07-25T21:23:06.614Z,37.37
2022-07-25T21:25:36.939Z,36.37
2022-07-25T21:28:12.300Z,39.83
2022-07-25T21:30:46.028Z,38.20
2022-07-25T21:33:28.368Z,38.80
2022-07-25T21:36:17.041Z,42.60
2022-07-25T21:38:59.840Z,49.33
2022-07-25T21:41:41.181Z,49.33
2022-07-25T21:44:11.589Z,46.47
2022-07-25T21:46:44.424Z,42.00
2022-07-25T21:49:41.514Z,47.17
2022-07-25T21:52:13.332Z,51.80
2022-07-25T21:54:42.639Z,53.50
2022-07-25T21:57:13.517Z,54.00
2022-07-25T21:59:45.346Z,58.10
2022-07-25T22:02:15.053Z,59.23
2022-07-25T22:05:42.798Z,59.87
2022-07-25T22:08:25.710Z,67.20
2022-07-25T22:10:54.945Z,62.57
2022-07-25T22:13:23.955Z,64.57
2022-07-25T22:15:55.066Z,65.00
2022-07-25T22:18:23.668Z,65.53
2022-07-25T22:24:06.392Z,69.67
2022-07-25T22:26:40.273Z,67.30
2022-07-25T22:29:09.661Z,64.70
2022-07-25T22:31:43.604Z,68.47
2022-07-25T22:34:13.938Z,46.80
2022-07-25T22:36:47.557Z,30.17
2022-07-25T22:39:34.337Z,24.90
2022-07-25T22:42:32.607Z,23.90
2022-07-25T22:45:04.157Z,23.80
2022-07-25T22:47:35.263Z,23.47
2022-07-25T22:50:13.496Z,23.77
2022-07-25T22:52:42.616Z,24.17
2022-07-25T22:55:12.376Z,22.80
2022-07-25T22:57:57.424Z,23.30
2022-07-25T23:00:41.489Z,24.50
2022-07-25T23:03:21.677Z,24.60
2022-07-25T23:05:50.293Z,24.40
2022-07-25T23:08:32.107Z,25.43
2022-07-25T23:11:07.796Z,28.27
2022-07-25T23:13:45.454Z,31.23
2022-07-25T23:16:14.836Z,37.40
2022-07-25T23:18:57.074Z,43.90
2022-07-25T23:21:26.889Z,44.23
2022-07-25T23:23:57.165Z,43.13
2022-07-25T23:26:37.905Z,43.77
2022-07-25T23:29:07.691Z,44.03
2022-07-25T23:32:02.478Z,42.30
2022-07-25T23:34:43.700Z,40.50
2022-07-25T23:37:29.069Z,38.43
2022-07-25T23:40:01.244Z,38.70
2022-07-25T23:42:30.320Z,38.90
2022-07-25T23:45:11.719Z,38.80
2022-07-25T23:47:40.673Z,36.60
2022-07-25T23:50:14.738Z,38.40
2022-07-25T23:52:44.018Z,35.93
2022-07-25T23:55:15.852Z,33.20
2022-07-25T23:57:45.358Z,32.60
